createdAt,value
2022-10-25T00:02:00.759Z,12.17
2022-10-25T00:04:29.750Z,12.19
2022-10-25T00:06:58.700Z,12.08
2022-10-25T00:09:27.625Z,12.13
2022-10-25T00:11:56.534Z,12.10
2022-10-25T00:14:26.793Z,11.99
2022-10-25T00:16:55.711Z,11.91
2022-10-25T00:19:24.674Z,11.85
2022-10-25T00:21:53.594Z,11.90
2022-10-25T00:24:22.504Z,11.85
2022-10-25T00:26:51.473Z,11.88
2022-10-25T00:29:20.442Z,11.86
2022-10-25T00:31:50.704Z,11.80
2022-10-25T00:34:19.651Z,11.74
2022-10-25T00:36:48.566Z,11.68
2022-10-25T00:39:17.502Z,11.73
2022-10-25T00:41:46.586Z,11.79
2022-10-25T00:44:52.041Z,11.79
2022-10-25T00:47:50.019Z,11.79
2022-10-25T00:50:35.661Z,11.72
2022-10-25T00:53:10.658Z,11.82
2022-10-25T00:55:45.422Z,11.76
2022-10-25T00:58:18.787Z,11.72
2022-10-25T01:00:48.817Z,11.71
2022-10-25T01:03:21.766Z,11.74
2022-10-25T01:05:52.306Z,11.70
2022-10-25T01:08:22.417Z,11.77
2022-10-25T01:10:51.653Z,11.78
2022-10-25T01:13:20.744Z,11.68
2022-10-25T01:15:59.897Z,11.78
2022-10-25T01:18:43.273Z,11.79
2022-10-25T01:21:37.086Z,11.96
2022-10-25T01:24:40.079Z,11.99
2022-10-25T01:30:55.897Z,12.07
2022-10-25T01:33:34.967Z,12.16
2022-10-25T01:36:11.605Z,12.25
2022-10-25T01:38:48.208Z,12.29
2022-10-25T01:41:25.993Z,12.28
2022-10-25T01:44:09.036Z,12.32
2022-10-25T01:46:45.821Z,12.33
2022-10-25T01:49:23.672Z,12.35
2022-10-25T01:51:52.587Z,12.35
2022-10-25T01:54:24.972Z,12.40
2022-10-25T01:57:06.568Z,12.38
2022-10-25T02:00:01.137Z,12.36
2022-10-25T02:02:34.645Z,12.27
2022-10-25T02:05:11.468Z,12.31
2022-10-25T02:07:44.710Z,12.32
2022-10-25T02:10:21.066Z,12.29
2022-10-25T02:12:56.757Z,12.26
2022-10-25T02:15:32.394Z,12.27
2022-10-25T02:18:04.759Z,12.27
2022-10-25T02:20:36.801Z,12.38
2022-10-25T02:23:07.237Z,12.41
2022-10-25T02:25:40.580Z,12.44
2022-10-25T02:28:13.633Z,12.40
2022-10-25T02:30:44.845Z,12.36
2022-10-25T02:33:14.045Z,12.29
2022-10-25T02:35:44.331Z,12.21
2022-10-25T02:38:13.308Z,12.18
2022-10-25T02:40:42.302Z,12.20
2022-10-25T02:43:11.225Z,12.20
2022-10-25T02:45:40.166Z,12.18
2022-10-25T02:48:09.066Z,12.17
2022-10-25T02:50:37.979Z,12.23
2022-10-25T02:53:08.282Z,12.22
2022-10-25T02:55:37.198Z,12.26
2022-10-25T02:58:06.180Z,12.24
2022-10-25T03:00:35.141Z,12.21
2022-10-25T03:03:04.207Z,12.17
2022-10-25T03:05:33.120Z,12.17
2022-10-25T03:08:02.135Z,12.21
2022-10-25T03:10:32.462Z,12.17
2022-10-25T03:13:01.361Z,12.09
2022-10-25T03:15:30.294Z,12.04
2022-10-25T03:17:59.228Z,12.06
2022-10-25T03:20:28.182Z,12.06
2022-10-25T03:22:57.115Z,12.00
2022-10-25T03:25:26.127Z,11.94
2022-10-25T03:27:56.523Z,11.93
2022-10-25T03:30:25.533Z,12.00
2022-10-25T03:32:54.801Z,12.01
2022-10-25T03:35:24.497Z,12.02
2022-10-25T03:37:54.150Z,12.00
2022-10-25T03:40:23.277Z,11.96
2022-10-25T03:42:52.265Z,12.04
2022-10-25T03:45:22.639Z,12.02
2022-10-25T03:47:51.543Z,12.09
2022-10-25T03:50:20.914Z,12.18
2022-10-25T03:52:49.900Z,12.25
2022-10-25T03:55:19.231Z,12.27
2022-10-25T03:57:48.617Z,12.22
2022-10-25T04:00:18.039Z,12.29
2022-10-25T04:02:48.386Z,12.34
2022-10-25T04:05:17.482Z,12.39
2022-10-25T04:07:46.574Z,12.42
2022-10-25T04:10:15.730Z,12.43
2022-10-25T04:12:44.717Z,12.50
2022-10-25T04:15:14.217Z,12.66
2022-10-25T04:17:43.181Z,12.68
2022-10-25T04:20:13.842Z,12.67
2022-10-25T04:22:42.814Z,12.62
2022-10-25T04:25:11.849Z,12.63
2022-10-25T04:27:40.842Z,12.69
2022-10-25T04:30:10.753Z,12.70
2022-10-25T04:32:39.681Z,12.63
2022-10-25T04:35:09.631Z,12.63
2022-10-25T04:37:39.993Z,12.55
2022-10-25T04:40:10.281Z,12.42
2022-10-25T04:42:39.227Z,12.43
2022-10-25T04:45:08.942Z,12.37
2022-10-25T04:47:37.886Z,12.27
2022-10-25T04:50:07.509Z,12.51
2022-10-25T04:52:36.453Z,12.36
2022-10-25T04:55:07.449Z,12.32
2022-10-25T04:57:36.399Z,12.37
2022-10-25T05:00:05.950Z,12.35
2022-10-25T05:02:34.910Z,12.40
2022-10-25T05:05:03.891Z,12.46
2022-10-25T05:07:32.791Z,12.45
2022-10-25T05:10:01.687Z,12.52
2022-10-25T05:12:31.958Z,12.57
2022-10-25T05:15:00.857Z,12.55
2022-10-25T05:17:30.544Z,12.52
2022-10-25T05:19:59.498Z,12.52
2022-10-25T05:22:29.179Z,12.50
2022-10-25T05:24:58.114Z,12.48
2022-10-25T05:27:27.090Z,12.61
2022-10-25T05:29:57.299Z,12.60
2022-10-25T05:32:26.197Z,12.54
2022-10-25T05:34:55.091Z,12.53
2022-10-25T05:37:24.062Z,12.47
2022-10-25T05:39:52.958Z,12.40
2022-10-25T05:42:22.430Z,12.38
2022-10-25T05:44:51.335Z,12.45
2022-10-25T05:47:21.624Z,12.45
2022-10-25T05:49:50.538Z,12.42
2022-10-25T05:52:19.461Z,12.46
2022-10-25T05:54:48.405Z,12.52
2022-10-25T05:57:17.333Z,12.56
2022-10-25T05:59:46.260Z,12.56
2022-10-25T06:02:15.270Z,12.56
2022-10-25T06:04:50.254Z,12.57
2022-10-25T06:07:21.350Z,12.61
2022-10-25T06:09:50.960Z,12.61
2022-10-25T06:12:19.881Z,12.66
2022-10-25T06:14:48.779Z,12.70
2022-10-25T06:17:17.699Z,12.73
2022-10-25T06:19:48.034Z,12.80
2022-10-25T06:22:17.054Z,12.80
2022-10-25T06:24:46.038Z,12.83
2022-10-25T06:27:15.235Z,12.82
2022-10-25T06:29:44.149Z,12.83
2022-10-25T06:32:13.086Z,12.65
2022-10-25T06:34:42.054Z,12.49
2022-10-25T06:37:12.376Z,12.37
2022-10-25T06:39:41.256Z,12.35
2022-10-25T06:42:10.196Z,12.36
2022-10-25T06:44:39.959Z,12.34
2022-10-25T06:47:17.689Z,12.34
2022-10-25T06:49:47.317Z,12.31
2022-10-25T06:52:17.608Z,12.33
2022-10-25T06:54:46.528Z,12.34
2022-10-25T06:57:15.487Z,12.36
2022-10-25T06:59:45.869Z,12.36
2022-10-25T07:02:14.900Z,12.44
2022-10-25T07:04:43.900Z,12.49
2022-10-25T07:07:14.811Z,12.47
2022-10-25T07:09:45.211Z,12.55
2022-10-25T07:12:14.169Z,12.58
2022-10-25T07:14:43.101Z,12.53
2022-10-25T07:17:12.030Z,12.50
2022-10-25T07:19:40.954Z,12.60
2022-10-25T07:22:09.906Z,12.59
2022-10-25T07:24:38.835Z,12.64
2022-10-25T07:27:09.110Z,12.67
2022-10-25T07:29:38.065Z,12.71
2022-10-25T07:32:07.237Z,12.72
2022-10-25T07:34:36.164Z,12.79
2022-10-25T07:37:06.986Z,12.80
2022-10-25T07:39:36.037Z,12.80
2022-10-25T07:42:05.059Z,12.86
2022-10-25T07:44:35.362Z,12.86
2022-10-25T07:47:04.404Z,12.87
2022-10-25T07:49:33.312Z,12.89
2022-10-25T07:52:02.244Z,12.95
2022-10-25T07:54:31.217Z,13.02
2022-10-25T07:57:01.131Z,13.02
2022-10-25T07:59:30.394Z,13.08
2022-10-25T08:02:00.646Z,13.07
2022-10-25T08:04:32.708Z,13.05
2022-10-25T08:07:02.151Z,13.04
2022-10-25T08:09:38.389Z,13.07
2022-10-25T08:12:07.909Z,13.10
2022-10-25T08:14:40.729Z,13.19
2022-10-25T08:17:12.659Z,13.23
2022-10-25T08:19:41.644Z,13.37
2022-10-25T08:22:10.631Z,13.46
2022-10-25T08:24:40.101Z,13.53
2022-10-25T08:27:09.057Z,13.61
2022-10-25T08:29:38.079Z,13.64
2022-10-25T08:32:07.042Z,13.56
2022-10-25T08:34:37.354Z,13.61
2022-10-25T08:37:06.274Z,13.61
2022-10-25T08:39:35.311Z,13.67
2022-10-25T08:42:04.806Z,13.76
2022-10-25T08:44:45.160Z,13.80
2022-10-25T08:47:19.460Z,13.90
2022-10-25T08:49:56.774Z,13.85
2022-10-25T08:52:31.913Z,13.94
2022-10-25T08:55:05.688Z,14.12
2022-10-25T08:57:39.136Z,14.24
2022-10-25T09:00:17.260Z,14.13
2022-10-25T09:02:51.862Z,14.31
2022-10-25T09:05:35.601Z,14.04
2022-10-25T09:08:20.623Z,13.95
2022-10-25T09:11:00.623Z,13.89
2022-10-25T09:13:38.867Z,14.54
2022-10-25T09:16:16.130Z,14.20
2022-10-25T09:18:49.299Z,14.18
2022-10-25T09:21:23.179Z,14.28
2022-10-25T09:24:00.422Z,14.44
2022-10-25T09:26:42.142Z,14.67
2022-10-25T09:29:24.400Z,14.48
2022-10-25T09:31:57.901Z,14.74
2022-10-25T09:34:32.870Z,14.51
2022-10-25T09:37:13.118Z,14.67
2022-10-25T09:39:45.589Z,14.68
2022-10-25T09:42:22.753Z,14.57
2022-10-25T09:44:55.656Z,14.58
2022-10-25T09:47:36.899Z,14.47
2022-10-25T09:50:12.859Z,14.52
2022-10-25T09:52:49.537Z,14.52
2022-10-25T09:55:34.479Z,14.58
2022-10-25T09:58:03.807Z,14.61
2022-10-25T10:00:34.401Z,14.48
2022-10-25T10:03:03.417Z,14.48
2022-10-25T10:05:33.197Z,14.30
2022-10-25T10:08:03.474Z,14.38
2022-10-25T10:10:36.313Z,14.41
2022-10-25T10:13:13.687Z,14.40
2022-10-25T10:15:51.143Z,14.41
2022-10-25T10:18:37.776Z,14.45
2022-10-25T10:21:13.266Z,14.46
2022-10-25T10:23:52.972Z,14.51
2022-10-25T10:26:29.234Z,14.66
2022-10-25T10:29:08.890Z,14.78
2022-10-25T10:31:39.878Z,14.83
2022-10-25T10:34:25.316Z,14.73
2022-10-25T10:37:05.740Z,14.79
2022-10-25T10:39:36.357Z,14.94
2022-10-25T10:42:17.413Z,14.87
2022-10-25T10:45:05.155Z,14.89
2022-10-25T10:47:36.996Z,14.79
2022-10-25T10:50:14.009Z,14.97
2022-10-25T10:52:45.879Z,14.82
2022-10-25T10:55:22.566Z,14.78
2022-10-25T10:57:55.090Z,14.78
2022-10-25T11:00:27.081Z,14.77
2022-10-25T11:05:32.205Z,15.60
2022-10-25T11:08:03.733Z,15.61
2022-10-25T11:10:35.832Z,15.51
2022-10-25T11:13:16.398Z,16.22
2022-10-25T11:16:21.953Z,15.64
2022-10-25T11:19:07.579Z,16.09
2022-10-25T11:22:12.746Z,16.18
2022-10-25T11:24:55.400Z,15.82
2022-10-25T11:27:39.047Z,15.38
2022-10-25T11:30:14.066Z,16.56
2022-10-25T11:33:25.158Z,16.11
2022-10-25T11:36:14.261Z,15.80
2022-10-25T11:38:58.469Z,15.92
2022-10-25T11:41:46.720Z,15.59
2022-10-25T11:44:31.695Z,15.40
2022-10-25T11:47:11.831Z,15.24
2022-10-25T11:49:58.546Z,15.12
2022-10-25T11:52:56.139Z,15.08
2022-10-25T11:55:36.871Z,14.90
2022-10-25T11:58:19.693Z,14.88
2022-10-25T12:00:58.015Z,16.43
2022-10-25T12:03:44.810Z,15.96
2022-10-25T12:06:23.812Z,15.19
2022-10-25T12:09:07.543Z,15.92
2022-10-25T12:11:43.463Z,15.77
2022-10-25T12:14:16.892Z,15.49
2022-10-25T12:16:51.924Z,15.32
2022-10-25T12:19:27.366Z,15.12
2022-10-25T12:22:02.274Z,16.11
2022-10-25T12:24:40.448Z,15.87
2022-10-25T12:27:11.960Z,15.42
2022-10-25T12:29:45.460Z,15.38
2022-10-25T12:32:21.516Z,15.52
2022-10-25T12:34:55.023Z,15.94
2022-10-25T12:37:36.966Z,15.99
2022-10-25T12:40:07.861Z,15.83
2022-10-25T12:42:46.295Z,15.77
2022-10-25T12:45:48.854Z,15.96
2022-10-25T12:48:45.486Z,15.66
2022-10-25T12:51:33.046Z,15.73
2022-10-25T12:54:31.617Z,15.85
2022-10-25T12:57:14.963Z,16.21
2022-10-25T13:00:03.834Z,16.29
2022-10-25T13:03:11.937Z,16.67
2022-10-25T13:06:19.428Z,17.18
2022-10-25T13:08:48.910Z,17.36
2022-10-25T13:11:18.157Z,17.22
2022-10-25T13:13:52.533Z,16.91
2022-10-25T13:16:27.695Z,17.29
2022-10-25T13:19:53.684Z,16.98
2022-10-25T13:22:40.898Z,16.60
2022-10-25T13:25:39.017Z,16.15
2022-10-25T13:28:32.773Z,17.13
2022-10-25T13:31:48.306Z,17.04
2022-10-25T13:34:37.210Z,17.08
2022-10-25T13:37:30.406Z,16.41
2022-10-25T13:40:03.923Z,16.54
2022-10-25T13:42:35.437Z,15.84
2022-10-25T13:45:09.617Z,15.87
2022-10-25T13:47:40.927Z,15.66
2022-10-25T13:53:02.379Z,15.90
2022-10-25T13:55:37.326Z,15.80
2022-10-25T13:58:39.664Z,16.36
2022-10-25T14:01:55.579Z,16.07
2022-10-25T14:04:41.061Z,15.85
2022-10-25T14:07:48.532Z,16.25
2022-10-25T14:10:34.009Z,16.41
2022-10-25T14:13:16.876Z,16.22
2022-10-25T14:15:53.405Z,15.84
2022-10-25T14:18:24.668Z,15.82
2022-10-25T14:20:56.844Z,15.85
2022-10-25T14:23:29.826Z,15.74
2022-10-25T14:26:00.740Z,15.76
2022-10-25T14:28:33.481Z,15.66
2022-10-25T14:31:04.145Z,15.59
2022-10-25T14:33:37.948Z,15.57
2022-10-25T14:36:11.785Z,15.60
2022-10-25T14:38:52.904Z,15.51
2022-10-25T14:41:24.185Z,15.55
2022-10-25T14:43:55.353Z,15.45
2022-10-25T14:46:26.047Z,15.50
2022-10-25T14:48:57.356Z,15.40
2022-10-25T14:51:29.295Z,15.40
2022-10-25T14:54:02.172Z,15.25
2022-10-25T14:56:33.949Z,15.14
2022-10-25T14:59:06.597Z,15.08
2022-10-25T15:01:36.290Z,15.05
2022-10-25T15:04:05.544Z,15.02
2022-10-25T15:06:34.549Z,15.00
2022-10-25T15:12:16.339Z,14.87
2022-10-25T15:14:48.166Z,14.80
2022-10-25T15:17:24.289Z,14.75
2022-10-25T15:20:06.216Z,14.67
2022-10-25T15:22:43.873Z,14.59
2022-10-25T15:25:28.693Z,14.45
2022-10-25T15:27:58.946Z,14.38
2022-10-25T15:30:37.029Z,14.34
2022-10-25T15:33:11.148Z,14.32
2022-10-25T15:35:48.283Z,14.32
2022-10-25T15:38:18.269Z,14.30
2022-10-25T15:40:47.889Z,14.16
2022-10-25T15:43:17.025Z,14.11
2022-10-25T15:45:47.405Z,14.03
2022-10-25T15:48:18.007Z,13.87
2022-10-25T15:50:49.920Z,13.78
2022-10-25T15:53:19.522Z,13.64
2022-10-25T15:55:50.147Z,13.55
2022-10-25T15:58:19.539Z,13.43
2022-10-25T16:00:52.042Z,13.39
2022-10-25T16:03:24.946Z,13.40
2022-10-25T16:05:54.257Z,13.35
2022-10-25T16:08:23.256Z,13.34
2022-10-25T16:10:52.729Z,13.36
2022-10-25T16:13:28.211Z,13.26
2022-10-25T16:15:59.040Z,13.25
2022-10-25T16:18:29.518Z,13.17
2022-10-25T16:20:59.178Z,13.25
2022-10-25T16:23:28.262Z,13.09
2022-10-25T16:25:57.517Z,13.01
2022-10-25T16:31:01.611Z,12.92
2022-10-25T16:33:30.569Z,12.97
2022-10-25T16:35:59.455Z,13.04
2022-10-25T16:38:28.344Z,13.02
2022-10-25T16:40:58.089Z,12.99
2022-10-25T16:43:27.026Z,12.94
2022-10-25T16:45:56.009Z,12.98
2022-10-25T16:48:26.417Z,12.93
2022-10-25T16:50:55.341Z,12.85
2022-10-25T16:53:24.555Z,12.93
2022-10-25T16:55:53.457Z,12.98
2022-10-25T16:58:22.363Z,12.97
2022-10-25T17:00:51.319Z,13.05
2022-10-25T17:03:20.234Z,13.07
2022-10-25T17:05:52.315Z,13.26
2022-10-25T17:08:21.312Z,13.26
2022-10-25T17:10:50.267Z,13.37
2022-10-25T17:13:20.099Z,13.40
2022-10-25T17:15:49.080Z,13.38
2022-10-25T17:18:20.856Z,13.43
2022-10-25T17:20:51.203Z,13.39
2022-10-25T17:23:20.185Z,13.40
2022-10-25T17:25:58.277Z,13.36
2022-10-25T17:28:27.360Z,13.43
2022-10-25T17:30:56.414Z,13.50
2022-10-25T17:33:26.048Z,13.53
2022-10-25T17:35:57.049Z,13.54
2022-10-25T17:38:26.090Z,13.50
2022-10-25T17:40:54.989Z,13.51
2022-10-25T17:43:23.876Z,13.48
2022-10-25T17:45:52.826Z,13.55
2022-10-25T17:48:21.734Z,13.58
2022-10-25T17:50:50.667Z,13.55
2022-10-25T17:53:20.893Z,13.56
2022-10-25T17:55:49.796Z,13.55
2022-10-25T17:58:18.743Z,13.62
2022-10-25T18:00:47.641Z,13.63
2022-10-25T18:03:16.570Z,13.67
2022-10-25T18:05:45.513Z,13.57
2022-10-25T18:08:14.458Z,13.51
2022-10-25T18:10:44.764Z,13.44
2022-10-25T18:13:13.690Z,13.33
2022-10-25T18:15:42.809Z,13.25
2022-10-25T18:18:11.721Z,13.18
2022-10-25T18:20:41.423Z,13.12
2022-10-25T18:23:13.373Z,13.01
2022-10-25T18:25:52.821Z,12.94
2022-10-25T18:28:21.826Z,12.85
2022-10-25T18:30:50.772Z,12.73
2022-10-25T18:33:23.709Z,12.63
2022-10-25T18:35:59.259Z,12.58
2022-10-25T18:38:28.495Z,12.55
2022-10-25T18:40:58.795Z,12.48
2022-10-25T18:43:28.062Z,12.33
2022-10-25T18:46:00.901Z,12.22
2022-10-25T18:48:30.079Z,12.13
2022-10-25T18:51:05.185Z,12.05
2022-10-25T18:53:35.338Z,12.00
2022-10-25T18:56:08.631Z,11.94
2022-10-25T18:58:37.520Z,11.90
2022-10-25T19:01:11.317Z,11.84
2022-10-25T19:03:41.287Z,11.87
2022-10-25T19:06:10.733Z,11.78
2022-10-25T19:08:39.754Z,11.65
2022-10-25T19:11:12.017Z,11.62
2022-10-25T19:13:42.402Z,11.57
2022-10-25T19:16:13.723Z,11.60
2022-10-25T19:18:42.621Z,11.50
2022-10-25T19:21:14.207Z,11.44
2022-10-25T19:23:45.367Z,11.41
2022-10-25T19:26:18.095Z,11.28
2022-10-25T19:28:47.432Z,11.31
2022-10-25T19:31:17.832Z,11.26
2022-10-25T19:33:47.616Z,11.23
2022-10-25T19:36:17.897Z,11.26
2022-10-25T19:38:48.253Z,11.22
2022-10-25T19:41:20.853Z,11.16
2022-10-25T19:43:49.809Z,11.06
2022-10-25T19:46:19.387Z,10.93
2022-10-25T19:48:48.401Z,10.85
2022-10-25T19:51:19.366Z,10.77
2022-10-25T19:53:49.412Z,10.74
2022-10-25T19:56:22.054Z,10.63
2022-10-25T19:58:51.540Z,10.61
2022-10-25T20:01:23.057Z,10.59
2022-10-25T20:03:54.500Z,10.72
2022-10-25T20:06:26.549Z,10.69
2022-10-25T20:08:57.087Z,10.63
2022-10-25T20:11:28.165Z,10.56
2022-10-25T20:13:59.196Z,10.54
2022-10-25T20:16:29.406Z,10.53
2022-10-25T20:18:59.752Z,10.42
2022-10-25T20:21:33.102Z,10.45
2022-10-25T20:24:03.411Z,10.44
2022-10-25T20:26:35.376Z,10.33
2022-10-25T20:29:06.887Z,10.27
2022-10-25T20:31:36.567Z,10.27
2022-10-25T20:34:05.555Z,10.22
2022-10-25T20:36:34.502Z,10.14
2022-10-25T20:39:03.537Z,10.09
2022-10-25T20:41:36.294Z,10.19
2022-10-25T20:44:05.813Z,10.10
2022-10-25T20:46:35.907Z,10.10
2022-10-25T20:49:07.262Z,10.06
2022-10-25T20:51:37.867Z,10.03
2022-10-25T20:54:09.652Z,9.94
2022-10-25T20:56:40.249Z,9.93
2022-10-25T20:59:09.540Z,9.86
2022-10-25T21:01:38.748Z,9.87
2022-10-25T21:04:09.571Z,9.87
2022-10-25T21:06:38.511Z,9.97
2022-10-25T21:09:07.438Z,9.94
2022-10-25T21:11:36.353Z,9.80
2022-10-25T21:14:06.578Z,9.67
2022-10-25T21:16:35.593Z,9.70
2022-10-25T21:19:05.059Z,9.74
2022-10-25T21:21:34.029Z,9.70
2022-10-25T21:24:05.458Z,9.71
2022-10-25T21:26:34.385Z,9.78
2022-10-25T21:29:03.555Z,9.72
2022-10-25T21:31:33.821Z,9.88
2022-10-25T21:34:04.504Z,9.84
2022-10-25T21:36:33.531Z,9.82
2022-10-25T21:39:02.432Z,9.79
2022-10-25T21:41:31.348Z,9.97
2022-10-25T21:44:00.415Z,10.02
2022-10-25T21:46:29.746Z,10.05
2022-10-25T21:49:00.025Z,10.06
2022-10-25T21:51:28.948Z,10.07
2022-10-25T21:54:01.138Z,10.10
2022-10-25T21:56:31.438Z,10.16
2022-10-25T21:59:01.713Z,10.18
2022-10-25T22:01:33.125Z,10.07
2022-10-25T22:04:03.436Z,10.00
2022-10-25T22:06:32.362Z,9.87
2022-10-25T22:09:01.295Z,9.77
2022-10-25T22:11:32.798Z,9.73
2022-10-25T22:14:03.533Z,9.64
2022-10-25T22:16:33.807Z,9.57
2022-10-25T22:19:05.945Z,9.40
2022-10-25T22:21:37.420Z,9.56
2022-10-25T22:24:08.342Z,9.64
2022-10-25T22:26:38.047Z,9.66
2022-10-25T22:29:07.417Z,9.64
2022-10-25T22:31:36.332Z,9.61
2022-10-25T22:34:08.487Z,9.62
2022-10-25T22:36:39.316Z,9.74
2022-10-25T22:39:09.540Z,9.71
2022-10-25T22:41:38.668Z,9.66
2022-10-25T22:44:07.595Z,9.71
2022-10-25T22:46:37.240Z,9.80
2022-10-25T22:49:09.522Z,9.85
2022-10-25T22:51:39.340Z,9.88
2022-10-25T22:54:08.597Z,9.82
2022-10-25T22:56:37.932Z,9.85
2022-10-25T22:59:07.657Z,9.87
2022-10-25T23:01:38.250Z,9.83
2022-10-25T23:04:10.281Z,9.83
2022-10-25T23:06:40.625Z,9.79
2022-10-25T23:09:11.675Z,9.79
2022-10-25T23:11:41.732Z,9.77
2022-10-25T23:14:14.922Z,9.76
2022-10-25T23:16:46.706Z,9.79
2022-10-25T23:19:16.951Z,9.70
2022-10-25T23:21:45.856Z,9.70
2022-10-25T23:24:14.795Z,9.68
2022-10-25T23:26:43.776Z,9.69
2022-10-25T23:29:14.042Z,9.72
2022-10-25T23:31:42.939Z,9.62
2022-10-25T23:34:12.553Z,9.61
2022-10-25T23:36:43.376Z,9.66
2022-10-25T23:39:12.362Z,9.63
2022-10-25T23:41:41.325Z,9.59
2022-10-25T23:44:10.222Z,9.57
2022-10-25T23:46:39.129Z,9.56
2022-10-25T23:49:08.041Z,9.59
2022-10-25T23:51:36.941Z,9.57
2022-10-25T23:54:09.526Z,9.50
2022-10-25T23:56:38.637Z,9.41
2022-10-25T23:59:07.695Z,9.31
